createdAt,value
2023-03-30T00:04:54.507Z,4.20
2023-03-30T00:10:03.337Z,4.40
2023-03-30T00:15:12.697Z,4.40
2023-03-30T00:20:19.819Z,4.50
2023-03-30T00:25:26.554Z,4.30
2023-03-30T00:30:33.372Z,4.40
2023-03-30T00:35:40.401Z,4.40
2023-03-30T00:40:56.759Z,4.50
2023-03-30T00:46:04.225Z,4.50
2023-03-30T00:51:14.379Z,4.70
2023-03-30T00:56:24.970Z,4.80
2023-03-30T01:01:35.474Z,4.70
2023-03-30T01:06:43.935Z,4.70
2023-03-30T01:11:51.430Z,4.60
2023-03-30T01:17:20.662Z,4.60
2023-03-30T01:22:51.256Z,4.90
2023-03-30T01:28:17.812Z,4.80
2023-03-30T01:33:51.302Z,5.00
2023-03-30T01:39:30.705Z,5.00
2023-03-30T01:44:56.893Z,5.20
2023-03-30T01:50:22.642Z,5.20
2023-03-30T01:55:51.869Z,5.10
2023-03-30T02:01:01.251Z,4.90
2023-03-30T02:06:34.571Z,5.10
2023-03-30T02:11:46.162Z,5.10
2023-03-30T02:16:57.535Z,5.40
2023-03-30T02:22:04.665Z,5.60
2023-03-30T02:27:12.908Z,5.80
2023-03-30T02:32:23.162Z,5.80
2023-03-30T02:37:58.357Z,6.00
2023-03-30T02:43:48.667Z,6.00
2023-03-30T02:49:17.459Z,6.00
2023-03-30T02:54:49.517Z,6.20
2023-03-30T03:00:02.914Z,6.00
2023-03-30T03:05:15.169Z,6.00
2023-03-30T03:10:22.196Z,6.10
2023-03-30T03:15:29.193Z,6.10
2023-03-30T03:20:36.062Z,6.10
2023-03-30T03:25:42.748Z,5.90
2023-03-30T03:30:51.272Z,5.90
2023-03-30T03:35:59.851Z,5.90
2023-03-30T03:41:07.526Z,5.90
2023-03-30T03:46:14.439Z,6.10
2023-03-30T03:51:21.153Z,6.20
2023-03-30T03:56:28.440Z,6.30
2023-03-30T04:01:35.263Z,6.40
2023-03-30T04:06:42.028Z,6.50
2023-03-30T04:11:48.847Z,6.50
2023-03-30T04:16:57.218Z,6.70
2023-03-30T04:22:05.631Z,6.80
2023-03-30T04:27:15.055Z,6.80
2023-03-30T04:32:21.844Z,6.50
2023-03-30T04:37:31.516Z,6.70
2023-03-30T04:42:38.692Z,6.80
2023-03-30T04:47:46.925Z,6.90
2023-03-30T04:52:53.678Z,6.80
2023-03-30T04:58:00.423Z,7.20
2023-03-30T05:03:08.065Z,7.20
2023-03-30T05:08:17.032Z,7.30
2023-03-30T05:13:23.861Z,7.30
2023-03-30T05:18:31.440Z,7.10
2023-03-30T05:23:40.047Z,7.00
2023-03-30T05:28:49.472Z,7.20
2023-03-30T05:33:56.253Z,7.30
2023-03-30T05:39:04.865Z,7.40
2023-03-30T05:44:11.619Z,7.50
2023-03-30T05:49:18.360Z,7.60
2023-03-30T05:54:26.929Z,7.60
2023-03-30T05:59:34.752Z,7.70
2023-03-30T06:04:42.452Z,7.70
2023-03-30T06:09:49.530Z,7.80
2023-03-30T06:14:56.746Z,7.80
2023-03-30T06:20:06.093Z,8.00
2023-03-30T06:25:13.934Z,8.10
2023-03-30T06:30:20.705Z,8.20
2023-03-30T06:35:27.670Z,8.30
2023-03-30T06:40:34.360Z,8.40
2023-03-30T06:45:41.117Z,8.50
2023-03-30T06:50:51.841Z,8.70
2023-03-30T06:56:00.796Z,8.80
2023-03-30T07:01:17.613Z,8.90
2023-03-30T07:06:24.646Z,9.00
2023-03-30T07:11:31.350Z,9.10
2023-03-30T07:16:38.615Z,9.20
2023-03-30T07:21:45.322Z,9.30
2023-03-30T07:26:52.647Z,9.20
2023-03-30T07:31:59.392Z,9.20
2023-03-30T07:42:14.161Z,9.30
2023-03-30T07:47:21.077Z,9.50
2023-03-30T07:52:28.101Z,9.60
2023-03-30T07:57:35.170Z,9.80
2023-03-30T08:02:42.886Z,10.20
2023-03-30T08:07:49.824Z,10.60
2023-03-30T08:12:57.098Z,11.20
2023-03-30T08:18:05.601Z,11.60
2023-03-30T08:23:21.832Z,11.90
2023-03-30T08:28:29.263Z,12.10
2023-03-30T08:33:38.736Z,11.90
2023-03-30T08:38:47.449Z,12.00
2023-03-30T08:44:22.731Z,12.20
2023-03-30T08:49:32.096Z,12.30
2023-03-30T08:54:59.973Z,12.30
2023-03-30T09:00:40.563Z,12.10
2023-03-30T09:05:57.445Z,12.30
2023-03-30T09:11:21.016Z,12.20
2023-03-30T09:16:54.170Z,12.40
2023-03-30T09:22:03.926Z,12.20
2023-03-30T09:27:19.247Z,12.10
2023-03-30T09:32:31.130Z,12.60
2023-03-30T09:37:38.667Z,12.70
2023-03-30T09:42:55.533Z,12.40
2023-03-30T09:48:11.033Z,12.30
2023-03-30T09:53:25.398Z,12.30
2023-03-30T09:58:36.599Z,12.20
2023-03-30T10:03:47.524Z,12.30
2023-03-30T10:08:57.472Z,12.20
2023-03-30T10:14:06.082Z,12.20
2023-03-30T10:19:25.336Z,12.20
2023-03-30T10:24:34.397Z,12.20
2023-03-30T10:29:50.554Z,12.30
2023-03-30T10:35:02.482Z,12.20
2023-03-30T10:40:28.740Z,11.90
2023-03-30T10:46:03.498Z,12.00
2023-03-30T10:51:19.015Z,12.20
2023-03-30T10:56:33.097Z,12.10
2023-03-30T11:01:57.095Z,12.00
2023-03-30T11:07:04.780Z,11.90
2023-03-30T11:12:19.763Z,11.80
2023-03-30T11:17:39.618Z,11.70
2023-03-30T11:22:50.514Z,11.60
2023-03-30T11:28:18.246Z,11.50
2023-03-30T11:33:32.345Z,11.70
2023-03-30T11:38:57.267Z,12.00
2023-03-30T11:44:03.778Z,12.20
2023-03-30T11:49:20.254Z,12.00
2023-03-30T11:54:59.852Z,12.00
2023-03-30T12:00:32.999Z,12.10
2023-03-30T12:05:52.143Z,12.40
2023-03-30T12:11:13.067Z,12.20
2023-03-30T12:16:25.620Z,12.40
2023-03-30T12:21:54.788Z,12.30
2023-03-30T12:27:06.109Z,12.20
2023-03-30T12:32:28.355Z,12.20
2023-03-30T12:37:38.697Z,12.00
2023-03-30T12:43:04.524Z,11.90
2023-03-30T12:48:30.890Z,12.00
2023-03-30T12:53:54.307Z,12.20
2023-03-30T12:59:36.662Z,12.50
2023-03-30T13:04:46.886Z,12.80
2023-03-30T13:10:00.598Z,12.80
2023-03-30T13:15:33.346Z,13.00
2023-03-30T13:20:50.848Z,13.20
2023-03-30T13:26:15.187Z,13.30
2023-03-30T13:31:49.902Z,13.30
2023-03-30T13:37:06.571Z,13.40
2023-03-30T13:42:46.163Z,13.60
2023-03-30T13:48:15.235Z,14.10
2023-03-30T13:53:22.645Z,14.00
2023-03-30T13:58:35.364Z,14.30
2023-03-30T14:03:45.102Z,14.50
2023-03-30T14:09:02.425Z,14.50
2023-03-30T14:14:11.372Z,14.20
2023-03-30T14:19:28.064Z,14.10
2023-03-30T14:24:37.092Z,14.10
2023-03-30T14:29:52.350Z,13.80
2023-03-30T14:34:59.420Z,13.70
2023-03-30T14:40:08.581Z,13.50
2023-03-30T14:45:20.953Z,13.30
2023-03-30T14:50:30.244Z,13.30
2023-03-30T14:55:38.296Z,13.20
2023-03-30T15:00:46.436Z,13.10
2023-03-30T15:06:00.000Z,13.00
2023-03-30T15:11:17.577Z,12.90
2023-03-30T15:16:28.760Z,12.70
2023-03-30T15:21:38.463Z,12.70
2023-03-30T15:26:48.684Z,12.50
2023-03-30T15:32:20.012Z,12.40
2023-03-30T15:37:26.966Z,12.30
2023-03-30T15:42:36.740Z,12.10
2023-03-30T15:47:44.438Z,12.00
2023-03-30T15:52:56.289Z,12.10
2023-03-30T15:58:04.743Z,12.20
2023-03-30T16:03:14.679Z,12.20
2023-03-30T16:08:21.714Z,12.30
2023-03-30T16:13:28.567Z,12.40
2023-03-30T16:18:35.233Z,12.50
2023-03-30T16:23:42.444Z,12.40
2023-03-30T16:28:53.447Z,12.20
2023-03-30T16:34:00.346Z,12.00
2023-03-30T16:39:10.636Z,11.90
2023-03-30T16:44:18.955Z,11.80
2023-03-30T16:49:28.034Z,11.80
2023-03-30T16:54:35.168Z,12.00
2023-03-30T16:59:43.325Z,11.90
2023-03-30T17:04:50.093Z,11.60
2023-03-30T17:09:56.989Z,11.50
2023-03-30T17:15:04.578Z,11.20
2023-03-30T17:20:27.198Z,10.60
2023-03-30T17:25:36.011Z,10.10
2023-03-30T17:30:42.803Z,9.90
2023-03-30T17:35:54.080Z,9.90
2023-03-30T17:41:00.876Z,9.90
2023-03-30T17:46:07.917Z,9.60
2023-03-30T17:51:14.876Z,9.60
2023-03-30T17:56:21.772Z,9.50
2023-03-30T18:01:29.100Z,9.60
2023-03-30T18:06:37.629Z,9.50
2023-03-30T18:11:45.156Z,9.30
2023-03-30T18:16:52.013Z,9.40
2023-03-30T18:21:58.800Z,9.40
2023-03-30T18:27:05.947Z,9.40
2023-03-30T18:32:12.678Z,9.30
2023-03-30T18:37:19.407Z,9.20
2023-03-30T18:42:26.843Z,9.40
2023-03-30T18:47:33.788Z,9.40
2023-03-30T18:52:40.513Z,9.60
2023-03-30T18:57:47.523Z,9.60
2023-03-30T19:02:57.184Z,9.20
2023-03-30T19:08:04.152Z,9.20
2023-03-30T19:13:14.770Z,9.10
2023-03-30T19:18:22.240Z,9.10
2023-03-30T19:23:30.652Z,9.10
2023-03-30T19:28:40.284Z,9.10
2023-03-30T19:33:47.339Z,9.20
2023-03-30T19:38:54.757Z,9.10
2023-03-30T19:44:02.050Z,9.10
2023-03-30T19:49:08.794Z,9.20
2023-03-30T19:54:17.237Z,9.20
2023-03-30T19:59:24.297Z,9.30
2023-03-30T20:04:31.717Z,9.40
2023-03-30T20:09:40.692Z,9.40
2023-03-30T20:14:48.005Z,9.20
2023-03-30T20:19:54.858Z,9.20
2023-03-30T20:25:03.834Z,9.30
2023-03-30T20:30:12.036Z,9.40
2023-03-30T20:35:20.054Z,9.40
2023-03-30T20:40:27.613Z,9.40
2023-03-30T20:45:36.052Z,9.00
2023-03-30T20:50:44.404Z,8.90
2023-03-30T20:55:51.104Z,8.70
2023-03-30T21:00:59.633Z,8.80
2023-03-30T21:06:08.182Z,9.10
2023-03-30T21:11:15.029Z,9.10
2023-03-30T21:16:21.917Z,9.10
2023-03-30T21:21:28.989Z,8.90
2023-03-30T21:26:35.687Z,8.80
2023-03-30T21:31:42.611Z,8.70
2023-03-30T21:36:50.569Z,8.40
2023-03-30T21:41:59.077Z,8.30
2023-03-30T21:47:05.917Z,8.10
2023-03-30T21:52:13.218Z,8.00
2023-03-30T21:57:19.953Z,8.20
2023-03-30T22:02:27.774Z,8.20
2023-03-30T22:07:35.025Z,8.10
2023-03-30T22:12:42.146Z,8.00
2023-03-30T22:17:50.113Z,7.90
2023-03-30T22:22:58.307Z,8.00
2023-03-30T22:28:06.131Z,7.90
2023-03-30T22:33:15.004Z,7.90
2023-03-30T22:38:22.414Z,8.10
2023-03-30T22:43:29.665Z,8.30
2023-03-30T22:48:37.117Z,8.10
2023-03-30T22:53:44.286Z,8.20
2023-03-30T22:58:52.009Z,8.30
2023-03-30T23:04:00.669Z,8.40
2023-03-30T23:09:07.843Z,8.80
2023-03-30T23:14:15.961Z,9.10
2023-03-30T23:19:22.872Z,9.00
2023-03-30T23:24:29.609Z,8.80
2023-03-30T23:29:36.518Z,8.80
2023-03-30T23:34:46.070Z,8.50
2023-03-30T23:39:53.591Z,8.40
2023-03-30T23:45:00.821Z,8.40
2023-03-30T23:50:10.479Z,8.40
2023-03-30T23:55:18.669Z,8.40
